createdAt,value
2023-01-12T00:04:14.939Z,322.94
2023-01-12T00:09:22.000Z,322.91
2023-01-12T00:14:29.241Z,323.63
2023-01-12T00:19:36.448Z,323.30
2023-01-12T00:24:43.640Z,322.43
2023-01-12T00:29:50.971Z,324.63
2023-01-12T00:34:58.127Z,324.79
2023-01-12T00:40:05.297Z,324.85
2023-01-12T00:45:12.566Z,324.36
2023-01-12T00:50:19.945Z,324.07
2023-01-12T00:55:26.958Z,323.59
2023-01-12T01:00:34.146Z,324.09
2023-01-12T01:05:41.356Z,324.71
2023-01-12T01:10:48.558Z,324.40
2023-01-12T01:15:55.763Z,324.71
2023-01-12T01:21:02.900Z,325.21
2023-01-12T01:26:10.073Z,325.66
2023-01-12T01:31:17.374Z,325.14
2023-01-12T01:36:24.453Z,324.89
2023-01-12T01:41:31.704Z,325.59
2023-01-12T01:46:38.949Z,324.45
2023-01-12T01:51:46.115Z,324.13
2023-01-12T01:56:53.369Z,325.47
2023-01-12T02:02:00.755Z,325.06
2023-01-12T02:07:07.917Z,324.68
2023-01-12T02:12:15.097Z,325.50
2023-01-12T02:17:22.392Z,325.24
2023-01-12T02:22:29.564Z,325.18
2023-01-12T02:27:36.804Z,325.42
2023-01-12T02:32:43.986Z,325.38
2023-01-12T02:37:51.199Z,324.47
2023-01-12T02:42:58.369Z,324.39
2023-01-12T02:48:05.671Z,325.07
2023-01-12T02:53:12.867Z,324.48
2023-01-12T02:58:20.047Z,324.72
2023-01-12T03:03:27.390Z,325.52
2023-01-12T03:08:34.455Z,324.78
2023-01-12T03:13:41.723Z,325.59
2023-01-12T03:18:49.048Z,325.99
2023-01-12T03:23:56.149Z,327.34
2023-01-12T03:29:03.307Z,328.43
2023-01-12T03:34:10.540Z,330.91
2023-01-12T03:39:17.739Z,331.09
2023-01-12T03:44:24.883Z,331.89
2023-01-12T03:49:32.144Z,331.00
2023-01-12T03:54:39.334Z,331.07
2023-01-12T03:59:46.552Z,331.57
2023-01-12T04:04:53.802Z,330.19
2023-01-12T04:10:00.951Z,329.47
2023-01-12T04:15:08.130Z,329.06
2023-01-12T04:20:15.340Z,328.77
2023-01-12T04:25:22.568Z,329.26
2023-01-12T04:30:29.756Z,329.64
2023-01-12T04:35:36.994Z,329.83
2023-01-12T04:40:44.173Z,329.88
2023-01-12T04:45:51.421Z,328.45
2023-01-12T04:50:58.623Z,329.24
2023-01-12T04:56:05.852Z,330.76
2023-01-12T05:01:13.237Z,329.90
2023-01-12T05:06:20.285Z,330.63
2023-01-12T05:11:27.449Z,330.04
2023-01-12T05:16:34.650Z,329.78
2023-01-12T05:21:41.836Z,330.07
2023-01-12T05:26:49.012Z,328.27
2023-01-12T05:31:56.216Z,327.00
2023-01-12T05:37:03.440Z,326.95
2023-01-12T05:42:10.895Z,327.82
2023-01-12T05:47:18.133Z,328.94
2023-01-12T05:52:25.328Z,330.14
2023-01-12T05:57:32.552Z,329.69
2023-01-12T06:02:39.842Z,329.38
2023-01-12T06:07:47.151Z,328.17
2023-01-12T06:12:54.261Z,328.18
2023-01-12T06:18:01.466Z,328.14
2023-01-12T06:23:08.708Z,327.61
2023-01-12T06:28:15.813Z,326.96
2023-01-12T06:33:23.021Z,326.93
2023-01-12T06:38:30.287Z,325.48
2023-01-12T06:43:37.402Z,325.52
2023-01-12T06:48:44.662Z,326.42
2023-01-12T06:53:51.943Z,327.29
2023-01-12T06:58:59.117Z,326.57
2023-01-12T07:04:06.377Z,327.29
2023-01-12T07:09:13.549Z,326.01
2023-01-12T07:14:20.809Z,326.67
2023-01-12T07:19:28.042Z,326.32
2023-01-12T07:24:35.246Z,327.63
2023-01-12T07:29:42.448Z,327.07
2023-01-12T07:34:49.651Z,327.21
2023-01-12T07:39:59.036Z,328.06
2023-01-12T07:45:04.057Z,328.91
2023-01-12T07:50:13.029Z,328.67
2023-01-12T07:55:18.606Z,329.17
2023-01-12T08:00:25.740Z,328.52
2023-01-12T08:05:33.053Z,328.60
2023-01-12T08:10:40.278Z,329.75
2023-01-12T08:15:47.571Z,331.23
2023-01-12T08:20:54.785Z,332.26
2023-01-12T08:26:02.042Z,331.24
2023-01-12T08:31:09.318Z,328.95
2023-01-12T08:36:16.507Z,328.46
2023-01-12T08:41:23.729Z,330.04
2023-01-12T08:46:31.016Z,329.91
2023-01-12T08:51:38.150Z,330.29
2023-01-12T08:56:45.394Z,330.15
2023-01-12T09:01:52.756Z,330.60
2023-01-12T09:07:00.294Z,330.44
2023-01-12T09:12:07.111Z,328.86
2023-01-12T09:17:14.348Z,329.22
2023-01-12T09:22:21.579Z,330.22
2023-01-12T09:27:28.818Z,329.90
2023-01-12T09:32:37.315Z,328.39
2023-01-12T09:37:43.174Z,328.36
2023-01-12T09:42:50.421Z,329.06
2023-01-12T09:47:57.625Z,329.12
2023-01-12T09:53:04.817Z,328.88
2023-01-12T09:58:12.046Z,329.34
2023-01-12T10:03:19.283Z,329.22
2023-01-12T10:08:26.391Z,330.26
2023-01-12T10:13:33.622Z,329.74
2023-01-12T10:18:41.838Z,330.45
2023-01-12T10:23:49.067Z,330.39
2023-01-12T10:28:56.324Z,331.51
2023-01-12T10:34:03.452Z,332.84
2023-01-12T10:39:10.653Z,333.82
2023-01-12T10:44:17.888Z,334.41
2023-01-12T10:49:25.115Z,334.46
2023-01-12T10:54:32.282Z,334.48
2023-01-12T10:59:39.514Z,335.01
2023-01-12T11:04:46.679Z,335.19
2023-01-12T11:09:53.923Z,335.64
2023-01-12T11:15:01.114Z,335.09
2023-01-12T11:20:08.303Z,335.94
2023-01-12T11:25:15.552Z,337.68
2023-01-12T11:30:22.733Z,339.04
2023-01-12T11:35:29.919Z,340.64
2023-01-12T11:40:37.117Z,340.79
2023-01-12T11:45:44.372Z,340.63
2023-01-12T11:50:51.493Z,340.57
2023-01-12T11:55:58.721Z,341.06
2023-01-12T12:01:05.987Z,341.53
2023-01-12T12:06:13.140Z,342.25
2023-01-12T12:11:20.351Z,342.83
2023-01-12T12:16:27.608Z,343.09
2023-01-12T12:21:34.732Z,342.49
2023-01-12T12:26:41.984Z,343.82
2023-01-12T12:31:49.191Z,343.74
2023-01-12T12:36:56.394Z,344.57
2023-01-12T12:42:03.585Z,344.14
2023-01-12T12:47:10.821Z,344.11
2023-01-12T12:52:17.997Z,343.54
2023-01-12T12:57:25.267Z,344.54
2023-01-12T13:02:32.547Z,346.00
2023-01-12T13:07:39.668Z,345.62
2023-01-12T13:12:46.875Z,346.06
2023-01-12T13:17:54.151Z,346.08
2023-01-12T13:23:01.311Z,346.66
2023-01-12T13:28:08.521Z,346.80
2023-01-12T13:33:15.823Z,345.93
2023-01-12T13:38:22.916Z,346.92
2023-01-12T13:43:30.152Z,347.76
2023-01-12T13:48:37.378Z,348.19
2023-01-12T13:53:44.537Z,348.72
2023-01-12T13:58:51.769Z,347.60
2023-01-12T14:03:59.004Z,347.67
2023-01-12T14:09:06.212Z,347.75
2023-01-12T14:14:13.478Z,347.00
2023-01-12T14:19:20.711Z,346.37
2023-01-12T14:24:27.917Z,348.08
2023-01-12T14:29:35.071Z,348.61
2023-01-12T14:34:42.312Z,349.34
2023-01-12T14:39:49.590Z,350.11
2023-01-12T14:44:57.703Z,351.20
2023-01-12T14:50:04.000Z,351.69
2023-01-12T14:55:14.268Z,351.33
2023-01-12T15:00:21.436Z,349.76
2023-01-12T15:05:28.704Z,350.92
2023-01-12T15:10:35.915Z,350.73
2023-01-12T15:15:43.100Z,350.82
2023-01-12T15:20:50.329Z,351.95
2023-01-12T15:25:57.492Z,351.32
2023-01-12T15:31:04.681Z,352.01
2023-01-12T15:36:11.944Z,352.01
2023-01-12T15:41:19.080Z,351.40
2023-01-12T15:46:26.273Z,350.52
2023-01-12T15:51:33.473Z,349.95
2023-01-12T15:56:40.627Z,350.89
2023-01-12T16:01:48.023Z,351.16
2023-01-12T16:06:55.096Z,350.81
2023-01-12T16:12:02.236Z,350.53
2023-01-12T16:17:09.429Z,349.79
2023-01-12T16:22:16.695Z,349.88
2023-01-12T16:27:23.858Z,350.49
2023-01-12T16:32:31.022Z,351.44
2023-01-12T16:37:38.288Z,352.52
2023-01-12T16:42:45.465Z,352.97
2023-01-12T16:47:52.684Z,352.83
2023-01-12T16:52:59.955Z,352.65
2023-01-12T16:58:07.109Z,353.17
2023-01-12T17:03:14.432Z,353.82
2023-01-12T17:08:21.502Z,353.17
2023-01-12T17:13:28.702Z,352.93
2023-01-12T17:18:35.866Z,353.80
2023-01-12T17:23:43.137Z,354.66
2023-01-12T17:28:50.312Z,354.78
2023-01-12T17:33:57.506Z,354.86
2023-01-12T17:39:04.748Z,354.35
2023-01-12T17:44:12.043Z,353.96
2023-01-12T17:49:19.355Z,353.39
2023-01-12T17:54:26.612Z,353.48
2023-01-12T17:59:33.792Z,354.09
2023-01-12T18:04:41.034Z,354.51
2023-01-12T18:09:48.314Z,354.80
2023-01-12T18:14:55.562Z,355.83
2023-01-12T18:20:02.785Z,357.08
2023-01-12T18:25:10.009Z,358.18
2023-01-12T18:30:17.229Z,359.32
2023-01-12T18:35:24.585Z,358.62
2023-01-12T18:40:32.390Z,358.52
2023-01-12T18:45:39.712Z,359.89
2023-01-12T18:50:47.208Z,358.11
2023-01-12T18:55:54.572Z,357.67
2023-01-12T19:01:01.899Z,358.92
2023-01-12T19:06:09.032Z,360.04
2023-01-12T19:11:16.592Z,360.02
2023-01-12T19:16:23.960Z,360.74
2023-01-12T19:21:31.871Z,361.63
2023-01-12T19:26:39.019Z,362.49
2023-01-12T19:31:46.486Z,362.24
2023-01-12T19:36:53.816Z,362.62
2023-01-12T19:42:01.844Z,361.92
2023-01-12T19:47:08.935Z,362.36
2023-01-12T19:52:16.219Z,363.18
2023-01-12T19:57:23.765Z,362.04
2023-01-12T20:02:31.270Z,362.40
2023-01-12T20:07:38.660Z,362.43
2023-01-12T20:12:46.010Z,362.28
2023-01-12T20:17:53.221Z,362.93
2023-01-12T20:23:00.695Z,364.51
2023-01-12T20:28:08.058Z,365.06
2023-01-12T20:33:15.503Z,365.49
2023-01-12T20:38:22.833Z,366.97
2023-01-12T20:43:30.369Z,367.48
2023-01-12T20:48:37.672Z,367.57
2023-01-12T20:53:44.841Z,366.28
2023-01-12T20:58:52.278Z,366.25
2023-01-12T21:03:59.435Z,364.96
2023-01-12T21:09:06.685Z,365.61
2023-01-12T21:14:13.978Z,367.78
2023-01-12T21:19:21.202Z,366.30
2023-01-12T21:24:28.382Z,366.23
2023-01-12T21:29:35.632Z,366.90
2023-01-12T21:34:42.847Z,365.04
2023-01-12T21:39:50.121Z,366.01
2023-01-12T21:44:57.337Z,365.62
2023-01-12T21:50:04.557Z,366.75
2023-01-12T21:55:11.735Z,367.12
2023-01-12T22:00:18.946Z,366.30
2023-01-12T22:05:26.063Z,367.06
2023-01-12T22:10:33.315Z,368.10
2023-01-12T22:15:40.505Z,368.26
2023-01-12T22:20:47.723Z,367.06
2023-01-12T22:25:54.900Z,365.46
2023-01-12T22:31:02.165Z,365.85
2023-01-12T22:36:09.865Z,365.40
2023-01-12T22:41:17.069Z,367.83
2023-01-12T22:46:24.284Z,368.55
2023-01-12T22:51:31.460Z,367.83
2023-01-12T22:56:38.669Z,365.58
2023-01-12T23:01:45.953Z,365.90
2023-01-12T23:06:53.228Z,366.54
2023-01-12T23:12:00.433Z,367.51
2023-01-12T23:17:07.682Z,369.50
2023-01-12T23:22:14.879Z,371.32
2023-01-12T23:27:22.149Z,370.96
2023-01-12T23:32:29.377Z,370.43
2023-01-12T23:37:36.585Z,371.15
2023-01-12T23:42:43.864Z,372.24
2023-01-12T23:47:51.135Z,372.48
2023-01-12T23:52:58.374Z,371.93
2023-01-12T23:58:05.634Z,370.88
